sensor_id;sensor_type;location;lat;lon;timestamp;P1;durP1;ratioP1;P2;durP2;ratioP2
55710;SDS011;41612;51.994;5.880;2024-03-23T00:56:11;19.98;;;7.55;;
55710;SDS011;41612;51.994;5.880;2024-03-23T00:58:36;15.13;;;7.70;;
55710;SDS011;41612;51.994;5.880;2024-03-23T01:01:02;16.08;;;7.47;;
55710;SDS011;41612;51.994;5.880;2024-03-23T01:03:29;16.92;;;7.47;;
55710;SDS011;41612;51.994;5.880;2024-03-23T01:05:58;42.95;;;13.38;;
55710;SDS011;41612;51.994;5.880;2024-03-23T01:08:24;28.77;;;9.65;;
55710;SDS011;41612;51.994;5.880;2024-03-23T01:10:56;24.25;;;8.90;;
55710;SDS011;41612;51.994;5.880;2024-03-23T01:13:23;18.23;;;7.68;;
55710;SDS011;41612;51.994;5.880;2024-03-23T01:15:52;19.65;;;8.10;;
55710;SDS011;41612;51.994;5.880;2024-03-23T01:18:19;16.20;;;7.95;;
55710;SDS011;41612;51.994;5.880;2024-03-23T01:20:45;30.02;;;11.27;;
55710;SDS011;41612;51.994;5.880;2024-03-23T01:23:12;32.60;;;12.30;;
55710;SDS011;41612;51.994;5.880;2024-03-23T01:25:37;21.05;;;9.93;;
55710;SDS011;41612;51.994;5.880;2024-03-23T01:28:03;15.52;;;6.80;;
55710;SDS011;41612;51.994;5.880;2024-03-23T01:30:31;19.10;;;9.15;;
55710;SDS011;41612;51.994;5.880;2024-03-23T01:33:00;40.05;;;12.38;;
55710;SDS011;41612;51.994;5.880;2024-03-23T01:35:27;26.98;;;11.10;;
55710;SDS011;41612;51.994;5.880;2024-03-23T01:37:53;14.32;;;7.85;;
55710;SDS011;41612;51.994;5.880;2024-03-23T01:40:19;24.80;;;10.77;;
55710;SDS011;41612;51.994;5.880;2024-03-23T01:45:30;31.83;;;12.07;;
55710;SDS011;41612;51.994;5.880;2024-03-23T01:47:56;22.20;;;10.32;;
55710;SDS011;41612;51.994;5.880;2024-03-23T01:50:22;37.00;;;10.20;;
55710;SDS011;41612;51.994;5.880;2024-03-23T01:52:49;31.60;;;13.55;;
55710;SDS011;41612;51.994;5.880;2024-03-23T01:55:15;34.30;;;12.90;;
55710;SDS011;41612;51.994;5.880;2024-03-23T01:57:41;29.92;;;11.38;;
55710;SDS011;41612;51.994;5.880;2024-03-23T02:00:07;40.88;;;15.60;;
55710;SDS011;41612;51.994;5.880;2024-03-23T02:05:12;25.92;;;11.38;;
55710;SDS011;41612;51.994;5.880;2024-03-23T02:07:41;37.50;;;15.27;;
55710;SDS011;41612;51.994;5.880;2024-03-23T02:10:08;31.85;;;13.82;;
55710;SDS011;41612;51.994;5.880;2024-03-23T02:12:35;20.77;;;9.07;;
55710;SDS011;41612;51.994;5.880;2024-03-23T02:15:01;20.38;;;9.55;;
55710;SDS011;41612;51.994;5.880;2024-03-23T02:17:28;17.00;;;8.23;;
55710;SDS011;41612;51.994;5.880;2024-03-23T02:19:55;19.02;;;8.98;;
55710;SDS011;41612;51.994;5.880;2024-03-23T02:22:21;28.38;;;12.68;;
55710;SDS011;41612;51.994;5.880;2024-03-23T02:24:46;37.20;;;15.80;;
55710;SDS011;41612;51.994;5.880;2024-03-23T02:27:12;31.48;;;12.45;;
55710;SDS011;41612;51.994;5.880;2024-03-23T02:29:38;29.75;;;12.68;;
55710;SDS011;41612;51.994;5.880;2024-03-23T02:32:03;32.95;;;13.50;;
55710;SDS011;41612;51.994;5.880;2024-03-23T02:34:29;36.47;;;12.63;;
55710;SDS011;41612;51.994;5.880;2024-03-23T02:36:55;29.13;;;14.88;;
55710;SDS011;41612;51.994;5.880;2024-03-23T02:39:21;32.22;;;13.35;;
55710;SDS011;41612;51.994;5.880;2024-03-23T02:41:46;25.15;;;11.32;;
55710;SDS011;41612;51.994;5.880;2024-03-23T02:44:13;36.63;;;14.52;;
55710;SDS011;41612;51.994;5.880;2024-03-23T02:46:39;36.45;;;14.35;;
55710;SDS011;41612;51.994;5.880;2024-03-23T02:49:05;25.33;;;11.35;;
55710;SDS011;41612;51.994;5.880;2024-03-23T02:51:31;25.83;;;10.40;;
55710;SDS011;41612;51.994;5.880;2024-03-23T02:53:56;29.40;;;12.50;;
55710;SDS011;41612;51.994;5.880;2024-03-23T02:56:22;34.78;;;12.93;;
55710;SDS011;41612;51.994;5.880;2024-03-23T02:58:48;23.05;;;13.57;;
55710;SDS011;41612;51.994;5.880;2024-03-23T03:01:14;38.75;;;15.27;;
55710;SDS011;41612;51.994;5.880;2024-03-23T03:03:39;24.27;;;11.20;;
55710;SDS011;41612;51.994;5.880;2024-03-23T03:06:05;32.70;;;12.43;;
55710;SDS011;41612;51.994;5.880;2024-03-23T03:08:31;18.65;;;9.55;;
55710;SDS011;41612;51.994;5.880;2024-03-23T03:10:56;31.55;;;14.00;;
55710;SDS011;41612;51.994;5.880;2024-03-23T03:13:22;33.50;;;15.60;;
55710;SDS011;41612;51.994;5.880;2024-03-23T03:15:48;48.55;;;18.70;;
55710;SDS011;41612;51.994;5.880;2024-03-23T03:18:13;24.02;;;12.30;;
55710;SDS011;41612;51.994;5.880;2024-03-23T03:20:40;23.58;;;12.15;;
55710;SDS011;41612;51.994;5.880;2024-03-23T03:23:06;30.38;;;14.32;;
55710;SDS011;41612;51.994;5.880;2024-03-23T03:25:32;22.65;;;11.15;;
55710;SDS011;41612;51.994;5.880;2024-03-23T03:28:01;30.98;;;13.77;;
55710;SDS011;41612;51.994;5.880;2024-03-23T03:30:27;21.85;;;10.65;;
55710;SDS011;41612;51.994;5.880;2024-03-23T03:32:53;36.78;;;14.98;;
55710;SDS011;41612;51.994;5.880;2024-03-23T03:35:20;26.70;;;13.50;;
55710;SDS011;41612;51.994;5.880;2024-03-23T03:37:46;33.08;;;14.18;;
55710;SDS011;41612;51.994;5.880;2024-03-23T03:40:12;27.23;;;11.32;;
55710;SDS011;41612;51.994;5.880;2024-03-23T03:42:40;35.83;;;14.85;;
55710;SDS011;41612;51.994;5.880;2024-03-23T03:45:06;20.92;;;10.45;;
55710;SDS011;41612;51.994;5.880;2024-03-23T03:47:32;25.00;;;10.05;;
55710;SDS011;41612;51.994;5.880;2024-03-23T03:49:57;34.72;;;13.00;;
55710;SDS011;41612;51.994;5.880;2024-03-23T03:52:23;23.67;;;10.85;;
55710;SDS011;41612;51.994;5.880;2024-03-23T03:54:49;26.02;;;11.43;;
55710;SDS011;41612;51.994;5.880;2024-03-23T03:57:14;22.80;;;11.10;;
55710;SDS011;41612;51.994;5.880;2024-03-23T03:59:40;35.10;;;13.50;;
55710;SDS011;41612;51.994;5.880;2024-03-23T04:02:06;30.13;;;12.85;;
55710;SDS011;41612;51.994;5.880;2024-03-23T04:04:31;28.65;;;12.75;;
55710;SDS011;41612;51.994;5.880;2024-03-23T04:06:58;22.98;;;9.93;;
55710;SDS011;41612;51.994;5.880;2024-03-23T04:09:24;22.92;;;11.05;;
55710;SDS011;41612;51.994;5.880;2024-03-23T04:11:50;27.88;;;12.07;;
55710;SDS011;41612;51.994;5.880;2024-03-23T04:14:16;29.38;;;11.82;;
55710;SDS011;41612;51.994;5.880;2024-03-23T04:16:41;25.60;;;12.02;;
55710;SDS011;41612;51.994;5.880;2024-03-23T04:19:07;21.27;;;10.90;;
55710;SDS011;41612;51.994;5.880;2024-03-23T04:21:33;32.95;;;13.85;;
55710;SDS011;41612;51.994;5.880;2024-03-23T04:23:59;23.15;;;10.68;;
55710;SDS011;41612;51.994;5.880;2024-03-23T04:26:25;29.65;;;12.88;;
55710;SDS011;41612;51.994;5.880;2024-03-23T04:28:50;20.83;;;10.90;;
55710;SDS011;41612;51.994;5.880;2024-03-23T04:31:16;35.70;;;13.35;;
55710;SDS011;41612;51.994;5.880;2024-03-23T04:33:42;30.80;;;12.88;;
55710;SDS011;41612;51.994;5.880;2024-03-23T04:36:08;16.77;;;9.63;;
55710;SDS011;41612;51.994;5.880;2024-03-23T04:38:35;19.27;;;9.82;;
55710;SDS011;41612;51.994;5.880;2024-03-23T04:41:01;26.88;;;10.48;;
55710;SDS011;41612;51.994;5.880;2024-03-23T04:43:27;27.23;;;11.93;;
55710;SDS011;41612;51.994;5.880;2024-03-23T04:45:53;29.80;;;11.43;;
55710;SDS011;41612;51.994;5.880;2024-03-23T04:48:20;36.55;;;9.77;;
55710;SDS011;41612;51.994;5.880;2024-03-23T04:50:47;31.33;;;11.73;;
55710;SDS011;41612;51.994;5.880;2024-03-23T04:53:14;18.52;;;9.05;;
55710;SDS011;41612;51.994;5.880;2024-03-23T04:55:41;17.73;;;8.27;;
55710;SDS011;41612;51.994;5.880;2024-03-23T04:58:10;19.08;;;9.25;;
55710;SDS011;41612;51.994;5.880;2024-03-23T05:00:35;20.65;;;8.45;;
55710;SDS011;41612;51.994;5.880;2024-03-23T05:03:01;25.45;;;9.25;;
55710;SDS011;41612;51.994;5.880;2024-03-23T05:05:27;19.00;;;9.00;;
55710;SDS011;41612;51.994;5.880;2024-03-23T05:07:53;22.27;;;8.25;;
55710;SDS011;41612;51.994;5.880;2024-03-23T05:10:18;19.30;;;8.27;;
55710;SDS011;41612;51.994;5.880;2024-03-23T05:12:45;21.88;;;8.27;;
55710;SDS011;41612;51.994;5.880;2024-03-23T05:15:11;25.13;;;8.43;;
55710;SDS011;41612;51.994;5.880;2024-03-23T05:17:37;18.05;;;8.88;;
55710;SDS011;41612;51.994;5.880;2024-03-23T05:20:03;24.77;;;8.40;;
55710;SDS011;41612;51.994;5.880;2024-03-23T05:22:30;22.95;;;8.18;;
55710;SDS011;41612;51.994;5.880;2024-03-23T05:24:56;26.45;;;8.00;;
55710;SDS011;41612;51.994;5.880;2024-03-23T05:27:21;24.10;;;7.43;;
55710;SDS011;41612;51.994;5.880;2024-03-23T05:29:48;28.60;;;8.85;;
55710;SDS011;41612;51.994;5.880;2024-03-23T05:32:13;17.00;;;7.30;;
55710;SDS011;41612;51.994;5.880;2024-03-23T05:34:39;26.48;;;6.60;;
55710;SDS011;41612;51.994;5.880;2024-03-23T05:37:05;25.83;;;6.75;;
55710;SDS011;41612;51.994;5.880;2024-03-23T05:39:31;25.95;;;7.68;;
55710;SDS011;41612;51.994;5.880;2024-03-23T05:41:56;22.45;;;7.60;;
55710;SDS011;41612;51.994;5.880;2024-03-23T05:44:22;17.48;;;7.07;;
55710;SDS011;41612;51.994;5.880;2024-03-23T05:46:47;20.25;;;7.88;;
55710;SDS011;41612;51.994;5.880;2024-03-23T05:49:14;21.88;;;7.65;;
55710;SDS011;41612;51.994;5.880;2024-03-23T05:51:41;13.68;;;5.72;;
55710;SDS011;41612;51.994;5.880;2024-03-23T05:54:06;25.55;;;7.22;;
55710;SDS011;41612;51.994;5.880;2024-03-23T05:56:34;14.45;;;6.20;;
55710;SDS011;41612;51.994;5.880;2024-03-23T05:59:00;18.08;;;6.05;;
55710;SDS011;41612;51.994;5.880;2024-03-23T06:01:25;17.95;;;5.78;;
55710;SDS011;41612;51.994;5.880;2024-03-23T06:03:55;22.48;;;6.97;;
55710;SDS011;41612;51.994;5.880;2024-03-23T06:06:23;20.88;;;6.10;;
55710;SDS011;41612;51.994;5.880;2024-03-23T06:08:53;17.40;;;4.88;;
55710;SDS011;41612;51.994;5.880;2024-03-23T06:11:23;17.83;;;5.45;;
55710;SDS011;41612;51.994;5.880;2024-03-23T06:13:49;15.90;;;5.20;;
55710;SDS011;41612;51.994;5.880;2024-03-23T06:16:18;14.52;;;5.80;;
55710;SDS011;41612;51.994;5.880;2024-03-23T06:18:48;26.23;;;4.95;;
55710;SDS011;41612;51.994;5.880;2024-03-23T06:21:14;13.65;;;5.80;;
55710;SDS011;41612;51.994;5.880;2024-03-23T06:23:41;16.92;;;5.18;;
55710;SDS011;41612;51.994;5.880;2024-03-23T06:26:07;18.02;;;5.82;;
55710;SDS011;41612;51.994;5.880;2024-03-23T06:28:33;13.43;;;3.70;;
55710;SDS011;41612;51.994;5.880;2024-03-23T06:30:59;13.13;;;4.05;;
55710;SDS011;41612;51.994;5.880;2024-03-23T06:33:25;13.20;;;4.45;;
55710;SDS011;41612;51.994;5.880;2024-03-23T06:35:51;11.77;;;5.10;;
55710;SDS011;41612;51.994;5.880;2024-03-23T06:38:17;20.40;;;6.78;;
55710;SDS011;41612;51.994;5.880;2024-03-23T06:40:43;17.90;;;3.88;;
55710;SDS011;41612;51.994;5.880;2024-03-23T06:43:13;12.43;;;3.20;;
55710;SDS011;41612;51.994;5.880;2024-03-23T06:45:39;13.90;;;5.32;;
55710;SDS011;41612;51.994;5.880;2024-03-23T06:48:05;10.55;;;4.53;;
55710;SDS011;41612;51.994;5.880;2024-03-23T06:50:33;15.48;;;5.05;;
55710;SDS011;41612;51.994;5.880;2024-03-23T06:52:59;19.20;;;3.75;;
55710;SDS011;41612;51.994;5.880;2024-03-23T06:55:24;12.48;;;4.43;;
55710;SDS011;41612;51.994;5.880;2024-03-23T06:57:51;11.85;;;4.63;;
55710;SDS011;41612;51.994;5.880;2024-03-23T07:00:17;9.68;;;4.00;;
55710;SDS011;41612;51.994;5.880;2024-03-23T07:02:43;15.10;;;4.30;;
55710;SDS011;41612;51.994;5.880;2024-03-23T07:05:09;13.63;;;4.68;;
55710;SDS011;41612;51.994;5.880;2024-03-23T07:07:36;14.75;;;3.30;;
55710;SDS011;41612;51.994;5.880;2024-03-23T07:10:04;8.82;;;3.15;;
55710;SDS011;41612;51.994;5.880;2024-03-23T07:12:33;14.45;;;4.22;;
55710;SDS011;41612;51.994;5.880;2024-03-23T07:14:59;8.75;;;3.60;;
55710;SDS011;41612;51.994;5.880;2024-03-23T07:17:24;18.83;;;3.97;;
55710;SDS011;41612;51.994;5.880;2024-03-23T07:19:50;11.75;;;3.55;;
55710;SDS011;41612;51.994;5.880;2024-03-23T07:22:32;11.60;;;3.03;;
55710;SDS011;41612;51.994;5.880;2024-03-23T07:25:00;14.25;;;3.40;;
55710;SDS011;41612;51.994;5.880;2024-03-23T07:27:42;7.28;;;3.33;;
55710;SDS011;41612;51.994;5.880;2024-03-23T07:30:08;8.10;;;2.90;;
55710;SDS011;41612;51.994;5.880;2024-03-23T07:32:34;15.98;;;4.82;;
55710;SDS011;41612;51.994;5.880;2024-03-23T07:35:00;16.30;;;4.85;;
55710;SDS011;41612;51.994;5.880;2024-03-23T07:37:26;19.92;;;3.60;;
55710;SDS011;41612;51.994;5.880;2024-03-23T07:39:52;10.32;;;3.38;;
55710;SDS011;41612;51.994;5.880;2024-03-23T07:42:18;14.55;;;4.78;;
55710;SDS011;41612;51.994;5.880;2024-03-23T07:44:44;9.32;;;3.72;;
55710;SDS011;41612;51.994;5.880;2024-03-23T07:47:11;13.82;;;3.78;;
55710;SDS011;41612;51.994;5.880;2024-03-23T07:49:39;18.33;;;4.03;;
55710;SDS011;41612;51.994;5.880;2024-03-23T07:52:05;16.92;;;5.32;;
55710;SDS011;41612;51.994;5.880;2024-03-23T07:54:36;13.65;;;4.50;;
55710;SDS011;41612;51.994;5.880;2024-03-23T07:57:04;13.65;;;5.55;;
55710;SDS011;41612;51.994;5.880;2024-03-23T07:59:33;20.42;;;3.80;;
55710;SDS011;41612;51.994;5.880;2024-03-23T08:01:59;12.55;;;3.35;;
55710;SDS011;41612;51.994;5.880;2024-03-23T08:04:26;10.52;;;3.35;;
55710;SDS011;41612;51.994;5.880;2024-03-23T08:07:04;18.20;;;4.43;;
55710;SDS011;41612;51.994;5.880;2024-03-23T08:09:37;7.75;;;2.50;;
55710;SDS011;41612;51.994;5.880;2024-03-23T08:12:02;17.80;;;3.78;;
55710;SDS011;41612;51.994;5.880;2024-03-23T08:14:31;11.80;;;3.17;;
55710;SDS011;41612;51.994;5.880;2024-03-23T08:16:59;17.08;;;3.90;;
55710;SDS011;41612;51.994;5.880;2024-03-23T08:19:25;11.18;;;3.33;;
55710;SDS011;41612;51.994;5.880;2024-03-23T08:21:51;7.40;;;3.00;;
55710;SDS011;41612;51.994;5.880;2024-03-23T08:24:17;12.55;;;3.63;;
55710;SDS011;41612;51.994;5.880;2024-03-23T08:26:42;11.05;;;3.53;;
55710;SDS011;41612;51.994;5.880;2024-03-23T08:29:08;11.48;;;2.85;;
55710;SDS011;41612;51.994;5.880;2024-03-23T08:31:34;20.98;;;3.83;;
55710;SDS011;41612;51.994;5.880;2024-03-23T08:34:02;12.63;;;3.10;;
55710;SDS011;41612;51.994;5.880;2024-03-23T08:36:34;17.38;;;3.08;;
55710;SDS011;41612;51.994;5.880;2024-03-23T08:39:08;4.93;;;2.30;;
55710;SDS011;41612;51.994;5.880;2024-03-23T08:41:37;6.07;;;2.72;;
55710;SDS011;41612;51.994;5.880;2024-03-23T08:44:02;15.55;;;3.33;;
55710;SDS011;41612;51.994;5.880;2024-03-23T08:46:30;9.30;;;3.03;;
55710;SDS011;41612;51.994;5.880;2024-03-23T08:48:55;6.60;;;2.83;;
55710;SDS011;41612;51.994;5.880;2024-03-23T08:51:26;8.73;;;2.72;;
55710;SDS011;41612;51.994;5.880;2024-03-23T08:53:51;9.20;;;2.95;;
55710;SDS011;41612;51.994;5.880;2024-03-23T08:56:18;5.63;;;2.28;;
55710;SDS011;41612;51.994;5.880;2024-03-23T08:58:45;9.43;;;2.75;;
55710;SDS011;41612;51.994;5.880;2024-03-23T09:01:15;7.15;;;2.40;;
55710;SDS011;41612;51.994;5.880;2024-03-23T09:03:45;8.55;;;3.58;;
55710;SDS011;41612;51.994;5.880;2024-03-23T09:06:15;6.80;;;1.98;;
55710;SDS011;41612;51.994;5.880;2024-03-23T09:08:42;8.60;;;2.38;;
55710;SDS011;41612;51.994;5.880;2024-03-23T09:11:08;7.80;;;2.40;;
55710;SDS011;41612;51.994;5.880;2024-03-23T09:13:44;13.40;;;2.97;;
55710;SDS011;41612;51.994;5.880;2024-03-23T09:16:20;7.15;;;2.88;;
55710;SDS011;41612;51.994;5.880;2024-03-23T09:18:51;7.80;;;2.22;;
55710;SDS011;41612;51.994;5.880;2024-03-23T09:21:17;10.63;;;2.40;;
55710;SDS011;41612;51.994;5.880;2024-03-23T09:23:43;8.65;;;2.28;;
55710;SDS011;41612;51.994;5.880;2024-03-23T09:26:11;16.65;;;2.90;;
55710;SDS011;41612;51.994;5.880;2024-03-23T09:28:39;4.97;;;1.85;;
55710;SDS011;41612;51.994;5.880;2024-03-23T09:31:05;4.78;;;2.10;;
55710;SDS011;41612;51.994;5.880;2024-03-23T09:33:32;8.80;;;1.88;;
55710;SDS011;41612;51.994;5.880;2024-03-23T09:36:02;9.45;;;2.13;;
55710;SDS011;41612;51.994;5.880;2024-03-23T09:38:28;11.00;;;2.63;;
55710;SDS011;41612;51.994;5.880;2024-03-23T09:40:54;10.90;;;2.70;;
55710;SDS011;41612;51.994;5.880;2024-03-23T09:43:25;9.80;;;2.47;;
55710;SDS011;41612;51.994;5.880;2024-03-23T09:45:59;8.82;;;2.67;;
55710;SDS011;41612;51.994;5.880;2024-03-23T09:48:29;7.75;;;1.85;;
55710;SDS011;41612;51.994;5.880;2024-03-23T09:51:23;13.68;;;2.05;;
55710;SDS011;41612;51.994;5.880;2024-03-23T09:53:54;7.63;;;1.85;;
55710;SDS011;41612;51.994;5.880;2024-03-23T09:56:24;9.38;;;2.03;;
55710;SDS011;41612;51.994;5.880;2024-03-23T09:59:06;6.78;;;1.85;;
55710;SDS011;41612;51.994;5.880;2024-03-23T10:01:56;8.52;;;2.47;;
55710;SDS011;41612;51.994;5.880;2024-03-23T10:04:38;9.70;;;2.08;;
55710;SDS011;41612;51.994;5.880;2024-03-23T10:07:26;12.50;;;1.90;;
55710;SDS011;41612;51.994;5.880;2024-03-23T10:09:56;7.55;;;1.40;;
55710;SDS011;41612;51.994;5.880;2024-03-23T10:13:02;6.20;;;1.38;;
55710;SDS011;41612;51.994;5.880;2024-03-23T10:15:58;7.50;;;2.72;;
55710;SDS011;41612;51.994;5.880;2024-03-23T10:19:02;5.88;;;1.60;;
55710;SDS011;41612;51.994;5.880;2024-03-23T10:22:04;7.78;;;2.15;;
55710;SDS011;41612;51.994;5.880;2024-03-23T11:31:08;7.28;;;2.25;;
55710;SDS011;41612;51.994;5.880;2024-03-23T11:33:43;9.40;;;2.20;;
55710;SDS011;41612;51.994;5.880;2024-03-23T11:36:27;5.28;;;1.83;;
55710;SDS011;41612;51.994;5.880;2024-03-23T11:42:29;5.53;;;1.58;;
55710;SDS011;41612;51.994;5.880;2024-03-23T11:45:42;6.68;;;1.45;;
55710;SDS011;41612;51.994;5.880;2024-03-23T11:48:40;10.93;;;1.80;;
55710;SDS011;41612;51.994;5.880;2024-03-23T11:51:22;6.75;;;1.77;;
55710;SDS011;41612;51.994;5.880;2024-03-23T11:53:48;6.30;;;3.35;;
55710;SDS011;41612;51.994;5.880;2024-03-23T11:59:29;6.25;;;1.58;;
55710;SDS011;41612;51.994;5.880;2024-03-23T12:07:34;18.13;;;2.95;;
55710;SDS011;41612;51.994;5.880;2024-03-23T14:05:03;6.88;;;1.90;;
55710;SDS011;41612;51.994;5.880;2024-03-23T14:07:41;6.30;;;2.17;;
55710;SDS011;41612;51.994;5.880;2024-03-23T14:10:55;4.70;;;1.58;;
55710;SDS011;41612;51.994;5.880;2024-03-23T14:13:28;7.90;;;1.48;;
55710;SDS011;41612;51.994;5.880;2024-03-23T14:15:59;13.15;;;1.70;;
55710;SDS011;41612;51.994;5.880;2024-03-23T14:18:48;5.65;;;1.50;;
55710;SDS011;41612;51.994;5.880;2024-03-23T14:21:19;4.85;;;1.23;;
55710;SDS011;41612;51.994;5.880;2024-03-23T14:24:03;10.27;;;1.27;;
55710;SDS011;41612;51.994;5.880;2024-03-23T14:27:03;8.68;;;1.63;;
55710;SDS011;41612;51.994;5.880;2024-03-23T14:29:47;3.47;;;1.20;;
55710;SDS011;41612;51.994;5.880;2024-03-23T14:32:24;9.63;;;1.52;;
55710;SDS011;41612;51.994;5.880;2024-03-23T14:35:12;7.82;;;1.67;;
55710;SDS011;41612;51.994;5.880;2024-03-23T14:37:42;6.35;;;1.60;;
55710;SDS011;41612;51.994;5.880;2024-03-23T14:40:14;9.65;;;2.10;;
55710;SDS011;41612;51.994;5.880;2024-03-23T14:42:45;3.75;;;1.40;;
55710;SDS011;41612;51.994;5.880;2024-03-23T14:45:13;6.95;;;1.30;;
55710;SDS011;41612;51.994;5.880;2024-03-23T14:47:43;5.00;;;1.50;;
55710;SDS011;41612;51.994;5.880;2024-03-23T14:50:19;4.50;;;1.58;;
55710;SDS011;41612;51.994;5.880;2024-03-23T14:52:48;5.20;;;1.20;;
55710;SDS011;41612;51.994;5.880;2024-03-23T14:55:19;4.00;;;1.33;;
55710;SDS011;41612;51.994;5.880;2024-03-23T14:57:56;7.43;;;1.38;;
55710;SDS011;41612;51.994;5.880;2024-03-23T15:00:30;5.13;;;1.52;;
55710;SDS011;41612;51.994;5.880;2024-03-23T15:03:01;5.07;;;1.73;;
55710;SDS011;41612;51.994;5.880;2024-03-23T15:05:30;6.80;;;1.40;;
55710;SDS011;41612;51.994;5.880;2024-03-23T15:08:28;7.38;;;1.73;;
55710;SDS011;41612;51.994;5.880;2024-03-23T15:11:00;6.88;;;1.48;;
55710;SDS011;41612;51.994;5.880;2024-03-23T15:13:41;7.30;;;1.83;;
55710;SDS011;41612;51.994;5.880;2024-03-23T15:16:07;5.07;;;1.55;;
55710;SDS011;41612;51.994;5.880;2024-03-23T15:18:33;8.45;;;2.10;;
55710;SDS011;41612;51.994;5.880;2024-03-23T15:21:01;5.97;;;1.63;;
55710;SDS011;41612;51.994;5.880;2024-03-23T15:23:33;4.72;;;1.65;;
55710;SDS011;41612;51.994;5.880;2024-03-23T15:26:01;6.03;;;2.20;;
55710;SDS011;41612;51.994;5.880;2024-03-23T15:28:31;8.55;;;1.67;;
55710;SDS011;41612;51.994;5.880;2024-03-23T15:31:12;8.55;;;2.22;;
55710;SDS011;41612;51.994;5.880;2024-03-23T15:33:38;10.05;;;1.70;;
55710;SDS011;41612;51.994;5.880;2024-03-23T15:36:06;5.53;;;1.45;;
55710;SDS011;41612;51.994;5.880;2024-03-23T15:38:35;6.30;;;1.77;;
55710;SDS011;41612;51.994;5.880;2024-03-23T15:41:01;6.82;;;2.25;;
55710;SDS011;41612;51.994;5.880;2024-03-23T15:43:27;6.47;;;1.88;;
55710;SDS011;41612;51.994;5.880;2024-03-23T15:45:53;6.88;;;2.08;;
55710;SDS011;41612;51.994;5.880;2024-03-23T15:48:22;5.80;;;2.20;;
55710;SDS011;41612;51.994;5.880;2024-03-23T15:50:51;5.50;;;1.38;;
55710;SDS011;41612;51.994;5.880;2024-03-23T15:53:18;7.05;;;1.98;;
55710;SDS011;41612;51.994;5.880;2024-03-23T15:55:55;5.85;;;1.95;;
55710;SDS011;41612;51.994;5.880;2024-03-23T15:58:25;7.15;;;1.98;;
55710;SDS011;41612;51.994;5.880;2024-03-23T16:01:01;3.75;;;1.13;;
55710;SDS011;41612;51.994;5.880;2024-03-23T16:03:34;4.03;;;1.48;;
55710;SDS011;41612;51.994;5.880;2024-03-23T16:06:01;4.82;;;1.10;;
55710;SDS011;41612;51.994;5.880;2024-03-23T16:08:33;3.28;;;1.30;;
55710;SDS011;41612;51.994;5.880;2024-03-23T16:11:06;4.47;;;1.00;;
55710;SDS011;41612;51.994;5.880;2024-03-23T16:13:40;3.30;;;1.15;;
55710;SDS011;41612;51.994;5.880;2024-03-23T16:16:08;5.05;;;1.30;;
55710;SDS011;41612;51.994;5.880;2024-03-23T16:18:35;2.50;;;1.17;;
55710;SDS011;41612;51.994;5.880;2024-03-23T16:21:07;4.13;;;1.20;;
55710;SDS011;41612;51.994;5.880;2024-03-23T16:23:35;3.13;;;1.25;;
55710;SDS011;41612;51.994;5.880;2024-03-23T16:26:07;9.93;;;2.47;;
55710;SDS011;41612;51.994;5.880;2024-03-23T16:28:35;2.17;;;0.90;;
55710;SDS011;41612;51.994;5.880;2024-03-23T16:31:04;4.00;;;1.00;;
55710;SDS011;41612;51.994;5.880;2024-03-23T16:33:37;2.40;;;0.88;;
55710;SDS011;41612;51.994;5.880;2024-03-23T16:36:04;4.63;;;1.20;;
55710;SDS011;41612;51.994;5.880;2024-03-23T16:38:34;7.43;;;1.25;;
55710;SDS011;41612;51.994;5.880;2024-03-23T16:41:04;4.22;;;1.30;;
55710;SDS011;41612;51.994;5.880;2024-03-23T16:43:55;4.63;;;1.50;;
55710;SDS011;41612;51.994;5.880;2024-03-23T16:46:30;10.32;;;1.63;;
55710;SDS011;41612;51.994;5.880;2024-03-23T16:49:11;3.17;;;1.00;;
55710;SDS011;41612;51.994;5.880;2024-03-23T16:51:37;5.57;;;1.90;;
55710;SDS011;41612;51.994;5.880;2024-03-23T16:54:03;2.97;;;1.10;;
55710;SDS011;41612;51.994;5.880;2024-03-23T16:56:29;7.20;;;1.40;;
55710;SDS011;41612;51.994;5.880;2024-03-23T16:59:01;6.18;;;1.10;;
55710;SDS011;41612;51.994;5.880;2024-03-23T17:01:30;5.60;;;1.50;;
55710;SDS011;41612;51.994;5.880;2024-03-23T17:04:01;3.60;;;1.05;;
55710;SDS011;41612;51.994;5.880;2024-03-23T17:06:47;9.68;;;3.05;;
55710;SDS011;41612;51.994;5.880;2024-03-23T17:09:46;3.33;;;1.08;;
55710;SDS011;41612;51.994;5.880;2024-03-23T17:13:00;5.38;;;1.27;;
55710;SDS011;41612;51.994;5.880;2024-03-23T17:15:44;5.00;;;1.80;;
55710;SDS011;41612;51.994;5.880;2024-03-23T17:18:18;5.18;;;1.67;;
55710;SDS011;41612;51.994;5.880;2024-03-23T17:20:46;3.30;;;1.02;;
55710;SDS011;41612;51.994;5.880;2024-03-23T17:23:29;4.28;;;1.13;;
55710;SDS011;41612;51.994;5.880;2024-03-23T17:25:55;6.65;;;1.38;;
55710;SDS011;41612;51.994;5.880;2024-03-23T17:28:29;4.63;;;1.50;;
55710;SDS011;41612;51.994;5.880;2024-03-23T17:31:20;3.00;;;1.10;;
55710;SDS011;41612;51.994;5.880;2024-03-23T17:33:49;4.10;;;1.08;;
55710;SDS011;41612;51.994;5.880;2024-03-23T17:36:19;14.57;;;2.83;;
55710;SDS011;41612;51.994;5.880;2024-03-23T17:38:54;4.35;;;1.42;;
55710;SDS011;41612;51.994;5.880;2024-03-23T17:41:21;5.35;;;1.35;;
55710;SDS011;41612;51.994;5.880;2024-03-23T17:43:50;6.00;;;1.45;;
55710;SDS011;41612;51.994;5.880;2024-03-23T17:46:21;3.28;;;1.08;;
55710;SDS011;41612;51.994;5.880;2024-03-23T17:48:54;3.53;;;1.10;;
55710;SDS011;41612;51.994;5.880;2024-03-23T17:51:26;5.72;;;1.83;;
55710;SDS011;41612;51.994;5.880;2024-03-23T17:53:56;3.67;;;1.02;;
55710;SDS011;41612;51.994;5.880;2024-03-23T17:56:24;2.90;;;1.30;;
55710;SDS011;41612;51.994;5.880;2024-03-23T17:59:02;3.85;;;1.33;;
55710;SDS011;41612;51.994;5.880;2024-03-23T18:01:37;4.70;;;1.40;;
55710;SDS011;41612;51.994;5.880;2024-03-23T18:04:21;4.05;;;1.33;;
55710;SDS011;41612;51.994;5.880;2024-03-23T18:06:48;5.43;;;1.20;;
55710;SDS011;41612;51.994;5.880;2024-03-23T18:09:35;1.67;;;0.90;;
55710;SDS011;41612;51.994;5.880;2024-03-23T18:12:20;2.08;;;1.00;;
55710;SDS011;41612;51.994;5.880;2024-03-23T18:17:47;3.53;;;1.23;;
55710;SDS011;41612;51.994;5.880;2024-03-23T20:41:28;9.45;;;2.70;;
55710;SDS011;41612;51.994;5.880;2024-03-23T23:44:26;10.23;;;4.05;;
55710;SDS011;41612;51.994;5.880;2024-03-23T23:47:15;7.18;;;3.08;;
55710;SDS011;41612;51.994;5.880;2024-03-23T23:49:59;8.25;;;3.58;;
55710;SDS011;41612;51.994;5.880;2024-03-23T23:52:36;11.80;;;3.95;;
55710;SDS011;41612;51.994;5.880;2024-03-23T23:58:03;5.07;;;3.15;;
